Flight Track Log - Related Links

Times and Time Zones

All times are in EDT time to prevent confusion due to time zone crossing. See the XOJ549 flight status page for this flight to view local times or setup timezone preferences in your user account.

Time Position Orientation Groundspeed Altitude Reporting Facility
EDT Latitude Longitude Course Direction KTS MPH feet Rate Location/Type
Wed 04:27:12 PM 29.5781 -95.2675 165° South 229 264 4,500  Level Houston Center
Wed 04:28:14 PM 29.5083 -95.2714 183° South 249 287 6,900 3,532 Climbing Houston Center
Wed 04:29:16 PM 29.4111 -95.2842 187° South 295 339 11,800 3,968 Climbing Houston Center
Wed 04:30:18 PM 29.3489 -95.3625 228° Southwest 335 386 15,100 2,032 Climbing Houston Center
Wed 04:31:20 PM 29.2914 -95.4528 234° Southwest 349 402 16,000 435 Climbing Houston Center
Wed 04:32:22 PM 29.2325 -95.5464 234° Southwest 361 415 16,000  Level Houston Center
Wed 04:33:24 PM 29.1689 -95.6356 231° Southwest 360 414 16,000  Level Houston Center
Wed 04:34:27 PM 29.1056 -95.7242 231° Southwest 361 415 16,000  Level Houston Center
Wed 04:35:29 PM 29.0283 -95.8306 230° Southwest 362 417 16,000  Level Houston Center
Wed 04:36:31 PM 28.9642 -95.9194 230° Southwest 362 417 16,000 -48 Level Houston Center
Wed 04:37:33 PM 28.9081 -95.9992 231° Southwest 363 418 15,900 -48 Descending Houston Center
Wed 04:38:35 PM 28.8311 -96.1061 231° Southwest 362 417 15,900  Level Houston Center
Wed 04:39:37 PM 28.7661 -96.1950 230° Southwest 364 419 15,900  Level Houston Center
Wed 04:40:39 PM 28.7028 -96.2842 231° Southwest 362 417 15,900  Level Houston Center
Wed 04:41:41 PM 28.6375 -96.3725 230° Southwest 363 418 15,900  Level Houston Center
Wed 04:42:44 PM 28.5725 -96.4614 230° Southwest 363 418 15,900  Level Houston Center
Wed 04:43:46 PM 28.5081 -96.5519 231° Southwest 365 420 15,900  Level Houston Center
Wed 04:44:17 PM 28.4661 -96.6114 231° Southwest 366 421 15,900  Level Houston Center
Wed 04:44:48 PM 28.4294 -96.6603 230° Southwest 368 423 15,900  Level Houston Center
Wed 04:45:24 PM 28.3928 -96.7078 229° Southwest 368 423 15,900 -1,111 Level Houston Center
Wed 04:46:36 PM 28.3167 -96.8164 231° Southwest 360 414 13,900 -1,850 Descending Houston Center
Wed 04:47:37 PM 28.2594 -96.9056 234° Southwest 334 384 11,800 -2,018 Descending Houston Center
Wed 04:48:26 PM 28.2203 -96.9706 236° Southwest 310 357 10,200 -1,747 Descending Houston Center
Wed 04:48:56 PM 28.2006 -97.0014 234° Southwest 309 356 9,500 -1,833 Descending Houston Center
Wed 04:49:38 PM 28.1631 -97.0617 235° Southwest 285 328 8,000 -1,982 Descending Houston Center
Wed 04:50:45 PM 28.1131 -97.1425 235° Southwest 277 319 5,900 -1,500 Descending Houston Center
Wed 04:51:46 PM 28.0664 -97.2156 234° Southwest 272 313 4,800 -1,049 Descending Houston Center
Wed 04:52:28 PM 28.0394 -97.2572 234° Southwest 266 306 4,100 -608 Descending Houston Center
Wed 04:53:05 PM 28.0164 -97.2986 238° Southwest 271 312 4,000 -179 Descending Houston Center
Wed 04:53:35 PM 27.9931 -97.3325 232° Southwest 255 293 3,900 -677 Descending Houston Center
Wed 04:54:07 PM 27.9753 -97.3633 237° Southwest 264 304 3,300 -934 Descending Houston Center
Wed 04:55:37 PM 27.9139 -97.4572 234° Southwest 239 275 2,000 -520 Descending Houston Center
Wed 04:56:37 PM 27.8661 -97.5017 219° Southwest 203 234 2,000 -295 Level Houston Center
Wed 04:57:39 PM 27.8214 -97.5339 213° Southwest 173 199 1,400 -738 Descending Houston Center
Wed 04:58:39 PM 27.7869 -97.5267 169° South 122 140 500 -900 Descending Houston Center
Wed 05:00:00 PM 27.7667 -97.5000 204° Southwest  Level FlightAware Approximate
Wed 05:07:00 PM 27.7704 -97.5012 204° Southwest  Level Estimated

Login

Don't have an account? Register now (free) for customized features, flight alerts, and more!